sensor_id;sensor_type;location;lat;lon;timestamp;pressure;altitude;pressure_sealevel;temperature;humidity
11712;BME280;5912;51.034;6.984;2023-02-25T00:00:04;56700.91;;;-142.13;71.58
11712;BME280;5912;51.034;6.984;2023-02-25T00:02:41;56732.94;;;-142.13;71.42
11712;BME280;5912;51.034;6.984;2023-02-25T00:05:06;56698.88;;;-142.13;71.00
11712;BME280;5912;51.034;6.984;2023-02-25T00:07:32;56736.94;;;-142.13;71.11
11712;BME280;5912;51.034;6.984;2023-02-25T00:09:57;56712.91;;;-142.13;71.38
11712;BME280;5912;51.034;6.984;2023-02-25T00:12:22;56704.91;;;-142.13;70.98
11712;BME280;5912;51.034;6.984;2023-02-25T00:14:48;56700.91;;;-142.13;71.00
11712;BME280;5912;51.034;6.984;2023-02-25T00:17:13;56740.97;;;-142.13;71.19
11712;BME280;5912;51.034;6.984;2023-02-25T00:19:38;56720.94;;;-142.13;71.22
11712;BME280;5912;51.034;6.984;2023-02-25T00:22:04;56730.94;;;-142.13;71.26
11712;BME280;5912;51.034;6.984;2023-02-25T00:24:29;56740.97;;;-142.13;71.57
11712;BME280;5912;51.034;6.984;2023-02-25T00:26:54;56761.00;;;-142.13;71.68
11712;BME280;5912;51.034;6.984;2023-02-25T00:29:20;56716.91;;;-142.13;71.70
11712;BME280;5912;51.034;6.984;2023-02-25T00:31:46;56680.84;;;-142.13;71.79
11712;BME280;5912;51.034;6.984;2023-02-25T00:34:11;56712.91;;;-142.13;71.81
11712;BME280;5912;51.034;6.984;2023-02-25T00:36:59;56722.94;;;-142.13;71.94
11712;BME280;5912;51.034;6.984;2023-02-25T00:39:24;56728.94;;;-142.13;71.30
11712;BME280;5912;51.034;6.984;2023-02-25T00:42:06;56740.97;;;-142.13;71.52
11712;BME280;5912;51.034;6.984;2023-02-25T00:44:31;56712.91;;;-142.13;71.33
11712;BME280;5912;51.034;6.984;2023-02-25T00:46:56;56757.00;;;-142.13;71.76
11712;BME280;5912;51.034;6.984;2023-02-25T00:49:22;56690.88;;;-142.13;71.93
11712;BME280;5912;51.034;6.984;2023-02-25T00:51:51;56724.94;;;-142.13;71.39
11712;BME280;5912;51.034;6.984;2023-02-25T00:54:17;56724.94;;;-142.13;71.29
11712;BME280;5912;51.034;6.984;2023-02-25T00:56:42;56680.84;;;-142.13;71.90
11712;BME280;5912;51.034;6.984;2023-02-25T00:59:07;56694.88;;;-142.13;71.89
11712;BME280;5912;51.034;6.984;2023-02-25T01:01:33;56686.88;;;-142.13;71.00
11712;BME280;5912;51.034;6.984;2023-02-25T01:03:59;56694.88;;;-142.13;71.40
11712;BME280;5912;51.034;6.984;2023-02-25T01:06:26;56704.91;;;-142.13;71.61
11712;BME280;5912;51.034;6.984;2023-02-25T01:08:51;56708.91;;;-142.13;72.02
11712;BME280;5912;51.034;6.984;2023-02-25T01:11:23;56718.91;;;-142.13;70.98
11712;BME280;5912;51.034;6.984;2023-02-25T01:13:52;56732.94;;;-142.13;71.80
11712;BME280;5912;51.034;6.984;2023-02-25T01:16:20;56698.88;;;-142.13;71.96
11712;BME280;5912;51.034;6.984;2023-02-25T01:18:46;56714.91;;;-142.13;71.58
11712;BME280;5912;51.034;6.984;2023-02-25T01:21:20;56740.97;;;-142.13;71.60
11712;BME280;5912;51.034;6.984;2023-02-25T01:23:55;56734.94;;;-142.13;70.81
11712;BME280;5912;51.034;6.984;2023-02-25T01:26:25;56744.97;;;-142.13;71.05
11712;BME280;5912;51.034;6.984;2023-02-25T01:28:51;56712.91;;;-142.13;71.79
11712;BME280;5912;51.034;6.984;2023-02-25T01:31:18;56714.91;;;-142.13;70.93
11712;BME280;5912;51.034;6.984;2023-02-25T01:33:49;56712.91;;;-142.13;71.23
11712;BME280;5912;51.034;6.984;2023-02-25T01:36:16;57005.41;;;-142.13;71.28
11712;BME280;5912;51.034;6.984;2023-02-25T01:38:44;56702.91;;;-142.13;70.89
11712;BME280;5912;51.034;6.984;2023-02-25T01:41:09;56716.91;;;-142.13;71.06
11712;BME280;5912;51.034;6.984;2023-02-25T01:43:35;56720.94;;;-142.13;70.86
11712;BME280;5912;51.034;6.984;2023-02-25T01:46:00;56736.94;;;-142.13;70.46
11712;BME280;5912;51.034;6.984;2023-02-25T01:48:28;56712.91;;;-142.13;70.44
11712;BME280;5912;51.034;6.984;2023-02-25T01:51:01;56740.97;;;-142.13;69.90
11712;BME280;5912;51.034;6.984;2023-02-25T01:53:31;56712.91;;;-142.13;70.10
11712;BME280;5912;51.034;6.984;2023-02-25T01:55:58;56708.91;;;-142.13;70.16
11712;BME280;5912;51.034;6.984;2023-02-25T01:58:25;56740.97;;;-142.13;69.85
11712;BME280;5912;51.034;6.984;2023-02-25T02:00:51;56716.91;;;-142.13;69.85
11712;BME280;5912;51.034;6.984;2023-02-25T02:03:20;56724.94;;;-142.13;69.69
11712;BME280;5912;51.034;6.984;2023-02-25T02:08:31;56716.91;;;-142.13;68.92
11712;BME280;5912;51.034;6.984;2023-02-25T02:10:58;56720.94;;;-142.13;69.31
11712;BME280;5912;51.034;6.984;2023-02-25T02:13:24;56726.94;;;-142.13;69.27
11712;BME280;5912;51.034;6.984;2023-02-25T02:18:32;56718.91;;;-142.13;69.48
11712;BME280;5912;51.034;6.984;2023-02-25T02:26:45;56734.94;;;-142.13;69.16
11712;BME280;5912;51.034;6.984;2023-02-25T02:32:19;56738.97;;;-142.13;68.93
11712;BME280;5912;51.034;6.984;2023-02-25T02:37:39;56742.97;;;-142.13;69.66
11712;BME280;5912;51.034;6.984;2023-02-25T02:40:20;56732.94;;;-142.13;69.04
11712;BME280;5912;51.034;6.984;2023-02-25T02:45:32;56744.97;;;-142.13;69.27
11712;BME280;5912;51.034;6.984;2023-02-25T02:48:07;56728.94;;;-142.13;69.66
11712;BME280;5912;51.034;6.984;2023-02-25T02:51:01;56720.94;;;-142.13;69.69
11712;BME280;5912;51.034;6.984;2023-02-25T02:53:32;56704.91;;;-142.13;69.34
11712;BME280;5912;51.034;6.984;2023-02-25T02:56:04;56742.97;;;-142.13;69.79
11712;BME280;5912;51.034;6.984;2023-02-25T02:58:35;56720.94;;;-142.13;69.69
11712;BME280;5912;51.034;6.984;2023-02-25T03:01:05;56724.94;;;-142.13;69.88
11712;BME280;5912;51.034;6.984;2023-02-25T03:03:34;56805.06;;;-142.13;70.46
11712;BME280;5912;51.034;6.984;2023-02-25T03:06:02;56748.97;;;-142.13;69.78
11712;BME280;5912;51.034;6.984;2023-02-25T03:08:30;56742.97;;;-142.13;69.48
11712;BME280;5912;51.034;6.984;2023-02-25T03:10:57;56740.97;;;-142.13;70.04
11712;BME280;5912;51.034;6.984;2023-02-25T03:13:23;56734.94;;;-142.13;69.57
11712;BME280;5912;51.034;6.984;2023-02-25T03:15:48;56672.84;;;-142.13;69.53
11712;BME280;5912;51.034;6.984;2023-02-25T03:18:32;56748.97;;;-142.13;69.73
11712;BME280;5912;51.034;6.984;2023-02-25T03:20:59;56726.94;;;-142.13;69.86
11712;BME280;5912;51.034;6.984;2023-02-25T03:23:30;56690.88;;;-142.13;70.04
11712;BME280;5912;51.034;6.984;2023-02-25T03:26:13;56728.94;;;-142.13;70.05
11712;BME280;5912;51.034;6.984;2023-02-25T03:28:43;56716.91;;;-142.13;69.81
11712;BME280;5912;51.034;6.984;2023-02-25T03:31:16;56738.97;;;-142.13;69.90
11712;BME280;5912;51.034;6.984;2023-02-25T03:33:48;56714.91;;;-142.13;69.73
11712;BME280;5912;51.034;6.984;2023-02-25T03:36:20;56740.97;;;-142.13;70.17
11712;BME280;5912;51.034;6.984;2023-02-25T03:38:50;56759.00;;;-142.13;70.48
11712;BME280;5912;51.034;6.984;2023-02-25T03:41:19;56724.94;;;-142.13;69.77
11712;BME280;5912;51.034;6.984;2023-02-25T03:43:48;56724.94;;;-142.13;70.60
11712;BME280;5912;51.034;6.984;2023-02-25T03:46:18;56724.94;;;-142.13;70.01
11712;BME280;5912;51.034;6.984;2023-02-25T03:48:43;56720.94;;;-142.13;70.11
11712;BME280;5912;51.034;6.984;2023-02-25T03:51:09;56732.94;;;-142.13;69.99
11712;BME280;5912;51.034;6.984;2023-02-25T03:53:38;56726.94;;;-142.13;70.01
11712;BME280;5912;51.034;6.984;2023-02-25T03:56:06;56708.91;;;-142.13;70.09
11712;BME280;5912;51.034;6.984;2023-02-25T03:58:34;56732.94;;;-142.13;70.27
11712;BME280;5912;51.034;6.984;2023-02-25T04:01:03;56724.94;;;-142.13;69.86
11712;BME280;5912;51.034;6.984;2023-02-25T04:03:30;56740.97;;;-142.13;70.24
11712;BME280;5912;51.034;6.984;2023-02-25T04:05:55;56738.97;;;-142.13;69.88
11712;BME280;5912;51.034;6.984;2023-02-25T04:08:20;56720.94;;;-142.13;69.90
11712;BME280;5912;51.034;6.984;2023-02-25T04:10:46;56712.91;;;-142.13;70.11
11712;BME280;5912;51.034;6.984;2023-02-25T04:13:13;56712.91;;;-142.13;70.27
11712;BME280;5912;51.034;6.984;2023-02-25T04:15:40;56742.97;;;-142.13;69.71
11712;BME280;5912;51.034;6.984;2023-02-25T04:18:05;56712.91;;;-142.13;69.72
11712;BME280;5912;51.034;6.984;2023-02-25T04:20:31;56718.91;;;-142.13;69.82
11712;BME280;5912;51.034;6.984;2023-02-25T04:22:58;56740.97;;;-142.13;69.72
11712;BME280;5912;51.034;6.984;2023-02-25T04:25:23;56738.97;;;-142.13;69.65
11712;BME280;5912;51.034;6.984;2023-02-25T04:27:48;56700.91;;;-142.13;68.98
11712;BME280;5912;51.034;6.984;2023-02-25T04:30:14;56726.94;;;-142.13;69.40
11712;BME280;5912;51.034;6.984;2023-02-25T04:32:39;56704.91;;;-142.13;68.39
11712;BME280;5912;51.034;6.984;2023-02-25T04:35:05;56714.91;;;-142.13;69.27
11712;BME280;5912;51.034;6.984;2023-02-25T04:37:33;56704.91;;;-142.13;67.95
11712;BME280;5912;51.034;6.984;2023-02-25T04:39:59;56730.94;;;-142.13;68.26
11712;BME280;5912;51.034;6.984;2023-02-25T04:42:24;56979.38;;;-142.13;68.47
11712;BME280;5912;51.034;6.984;2023-02-25T04:44:49;56714.91;;;-142.13;68.35
11712;BME280;5912;51.034;6.984;2023-02-25T04:47:15;56692.88;;;-142.13;68.73
11712;BME280;5912;51.034;6.984;2023-02-25T04:49:40;56720.94;;;-142.13;68.44
11712;BME280;5912;51.034;6.984;2023-02-25T04:52:17;56720.94;;;-142.13;68.63
11712;BME280;5912;51.034;6.984;2023-02-25T04:54:43;56724.94;;;-142.13;69.14
11712;BME280;5912;51.034;6.984;2023-02-25T04:57:10;56728.94;;;-142.13;68.38
11712;BME280;5912;51.034;6.984;2023-02-25T04:59:35;56712.91;;;-142.13;68.35
11712;BME280;5912;51.034;6.984;2023-02-25T05:02:01;56736.94;;;-142.13;68.84
11712;BME280;5912;51.034;6.984;2023-02-25T05:04:26;56734.94;;;-142.13;68.78
11712;BME280;5912;51.034;6.984;2023-02-25T05:06:52;56748.97;;;-142.13;68.91
11712;BME280;5912;51.034;6.984;2023-02-25T05:09:17;56700.91;;;-142.13;69.22
11712;BME280;5912;51.034;6.984;2023-02-25T05:11:42;56728.94;;;-142.13;68.43
11712;BME280;5912;51.034;6.984;2023-02-25T05:14:08;56718.91;;;-142.13;69.05
11712;BME280;5912;51.034;6.984;2023-02-25T05:16:33;56722.94;;;-142.13;68.88
11712;BME280;5912;51.034;6.984;2023-02-25T05:18:59;56706.91;;;-142.13;68.90
11712;BME280;5912;51.034;6.984;2023-02-25T05:21:25;56708.91;;;-142.13;68.92
11712;BME280;5912;51.034;6.984;2023-02-25T05:23:51;56744.97;;;-142.13;68.80
11712;BME280;5912;51.034;6.984;2023-02-25T05:26:19;56712.91;;;-142.13;68.48
11712;BME280;5912;51.034;6.984;2023-02-25T05:28:48;56704.91;;;-142.13;68.40
11712;BME280;5912;51.034;6.984;2023-02-25T05:31:13;56738.97;;;-142.13;68.98
11712;BME280;5912;51.034;6.984;2023-02-25T05:33:39;56738.97;;;-142.13;68.59
11712;BME280;5912;51.034;6.984;2023-02-25T05:36:06;56712.91;;;-142.13;69.42
11712;BME280;5912;51.034;6.984;2023-02-25T05:38:33;56716.91;;;-142.13;69.03
11712;BME280;5912;51.034;6.984;2023-02-25T05:40:59;56694.88;;;-142.13;69.19
11712;BME280;5912;51.034;6.984;2023-02-25T05:43:25;56708.91;;;-142.13;69.47
11712;BME280;5912;51.034;6.984;2023-02-25T05:45:57;56767.00;;;-142.13;69.20
11712;BME280;5912;51.034;6.984;2023-02-25T05:48:24;56728.94;;;-142.13;69.69
11712;BME280;5912;51.034;6.984;2023-02-25T05:50:50;56728.94;;;-142.13;69.95
11712;BME280;5912;51.034;6.984;2023-02-25T05:53:18;56937.28;;;-142.13;69.60
11712;BME280;5912;51.034;6.984;2023-02-25T05:55:44;56702.91;;;-142.13;69.40
11712;BME280;5912;51.034;6.984;2023-02-25T05:58:11;56718.91;;;-142.13;69.59
11712;BME280;5912;51.034;6.984;2023-02-25T06:00:37;56752.97;;;-142.13;69.36
11712;BME280;5912;51.034;6.984;2023-02-25T06:03:03;56744.97;;;-142.13;69.33
11712;BME280;5912;51.034;6.984;2023-02-25T06:05:29;56740.97;;;-142.13;69.45
11712;BME280;5912;51.034;6.984;2023-02-25T06:07:56;56720.94;;;-142.13;69.61
11712;BME280;5912;51.034;6.984;2023-02-25T06:10:22;56728.94;;;-142.13;69.92
11712;BME280;5912;51.034;6.984;2023-02-25T06:12:47;56706.91;;;-142.13;69.53
11712;BME280;5912;51.034;6.984;2023-02-25T06:15:12;56722.94;;;-142.13;69.79
11712;BME280;5912;51.034;6.984;2023-02-25T06:17:39;56734.94;;;-142.13;69.34
11712;BME280;5912;51.034;6.984;2023-02-25T06:20:04;56738.97;;;-142.13;70.53
11712;BME280;5912;51.034;6.984;2023-02-25T06:22:30;56694.88;;;-142.13;69.92
11712;BME280;5912;51.034;6.984;2023-02-25T06:24:55;56744.97;;;-142.13;69.59
11712;BME280;5912;51.034;6.984;2023-02-25T06:27:20;56736.94;;;-142.13;70.27
11712;BME280;5912;51.034;6.984;2023-02-25T06:29:47;56692.88;;;-142.13;69.82
11712;BME280;5912;51.034;6.984;2023-02-25T06:32:13;56730.94;;;-142.13;68.88
11712;BME280;5912;51.034;6.984;2023-02-25T06:34:38;56720.94;;;-142.13;69.12
11712;BME280;5912;51.034;6.984;2023-02-25T06:37:04;56736.94;;;-142.13;69.10
11712;BME280;5912;51.034;6.984;2023-02-25T06:39:29;56730.94;;;-142.13;69.16
11712;BME280;5912;51.034;6.984;2023-02-25T06:41:55;56724.94;;;-142.13;69.51
11712;BME280;5912;51.034;6.984;2023-02-25T06:44:20;56740.97;;;-142.13;68.88
11712;BME280;5912;51.034;6.984;2023-02-25T06:46:49;56716.91;;;-142.13;69.13
11712;BME280;5912;51.034;6.984;2023-02-25T06:49:14;56722.94;;;-142.13;68.84
11712;BME280;5912;51.034;6.984;2023-02-25T06:54:52;56698.88;;;-142.13;68.89
11712;BME280;5912;51.034;6.984;2023-02-25T06:57:17;56736.94;;;-142.13;68.68
11712;BME280;5912;51.034;6.984;2023-02-25T07:03:05;56730.94;;;-142.13;68.11
11712;BME280;5912;51.034;6.984;2023-02-25T07:05:30;56726.94;;;-142.13;69.13
11712;BME280;5912;51.034;6.984;2023-02-25T07:07:56;56720.94;;;-142.13;69.09
11712;BME280;5912;51.034;6.984;2023-02-25T07:10:21;56728.94;;;-142.13;68.36
11712;BME280;5912;51.034;6.984;2023-02-25T07:12:47;56742.97;;;-142.13;68.24
11712;BME280;5912;51.034;6.984;2023-02-25T07:15:12;56724.94;;;-142.13;68.68
11712;BME280;5912;51.034;6.984;2023-02-25T07:17:37;56696.88;;;-142.13;68.39
11712;BME280;5912;51.034;6.984;2023-02-25T07:20:03;56700.91;;;-142.13;68.32
11712;BME280;5912;51.034;6.984;2023-02-25T07:22:28;56708.91;;;-142.13;68.21
11712;BME280;5912;51.034;6.984;2023-02-25T07:25:10;56718.91;;;-142.13;68.10
11712;BME280;5912;51.034;6.984;2023-02-25T07:27:39;56720.94;;;-142.13;67.77
11712;BME280;5912;51.034;6.984;2023-02-25T07:30:05;56730.94;;;-142.13;67.93
11712;BME280;5912;51.034;6.984;2023-02-25T07:32:30;56752.97;;;-142.13;68.26
11712;BME280;5912;51.034;6.984;2023-02-25T07:34:57;56746.97;;;-142.13;68.28
11712;BME280;5912;51.034;6.984;2023-02-25T07:37:22;56704.91;;;-142.13;68.24
11712;BME280;5912;51.034;6.984;2023-02-25T07:39:47;56710.91;;;-142.13;67.89
11712;BME280;5912;51.034;6.984;2023-02-25T07:42:13;56716.91;;;-142.13;67.52
11712;BME280;5912;51.034;6.984;2023-02-25T07:44:38;56684.88;;;-142.13;67.99
11712;BME280;5912;51.034;6.984;2023-02-25T07:47:03;56702.91;;;-142.13;67.61
11712;BME280;5912;51.034;6.984;2023-02-25T07:49:29;56694.88;;;-142.13;66.84
11712;BME280;5912;51.034;6.984;2023-02-25T07:51:54;56708.91;;;-142.13;66.93
11712;BME280;5912;51.034;6.984;2023-02-25T07:54:19;56718.91;;;-142.13;66.38
11712;BME280;5912;51.034;6.984;2023-02-25T07:56:46;56690.88;;;-142.13;66.08
11712;BME280;5912;51.034;6.984;2023-02-25T07:59:11;56698.88;;;-142.13;65.98
11712;BME280;5912;51.034;6.984;2023-02-25T08:01:37;56684.88;;;-142.13;65.72
11712;BME280;5912;51.034;6.984;2023-02-25T08:04:05;56654.81;;;-142.13;65.75
11712;BME280;5912;51.034;6.984;2023-02-25T08:06:32;56668.84;;;-142.13;64.71
11712;BME280;5912;51.034;6.984;2023-02-25T08:08:58;56682.88;;;-142.13;64.70
11712;BME280;5912;51.034;6.984;2023-02-25T08:11:24;56690.88;;;-142.13;63.87
11712;BME280;5912;51.034;6.984;2023-02-25T08:13:50;56676.84;;;-142.13;63.97
11712;BME280;5912;51.034;6.984;2023-02-25T08:16:17;56670.84;;;-142.13;63.13
11712;BME280;5912;51.034;6.984;2023-02-25T08:18:42;56688.88;;;-142.13;63.04
11712;BME280;5912;51.034;6.984;2023-02-25T08:21:12;56684.88;;;-142.13;63.10
11712;BME280;5912;51.034;6.984;2023-02-25T08:23:38;56648.81;;;-142.13;62.57
11712;BME280;5912;51.034;6.984;2023-02-25T08:26:04;56656.81;;;-142.13;62.51
11712;BME280;5912;51.034;6.984;2023-02-25T08:28:30;56684.88;;;-142.13;61.81
11712;BME280;5912;51.034;6.984;2023-02-25T08:30:56;56636.78;;;-142.13;61.57
11712;BME280;5912;51.034;6.984;2023-02-25T08:33:22;56674.84;;;-142.13;62.28
11712;BME280;5912;51.034;6.984;2023-02-25T08:35:48;56652.81;;;-142.13;62.50
11712;BME280;5912;51.034;6.984;2023-02-25T08:38:13;56700.91;;;-142.13;63.18
11712;BME280;5912;51.034;6.984;2023-02-25T08:40:39;56658.81;;;-142.13;63.99
11712;BME280;5912;51.034;6.984;2023-02-25T08:43:05;56662.81;;;-142.13;64.78
11712;BME280;5912;51.034;6.984;2023-02-25T08:45:30;56690.88;;;-142.13;65.31
11712;BME280;5912;51.034;6.984;2023-02-25T08:47:55;56678.84;;;-142.13;65.71
11712;BME280;5912;51.034;6.984;2023-02-25T08:50:21;56674.84;;;-142.13;65.69
11712;BME280;5912;51.034;6.984;2023-02-25T08:52:48;56656.81;;;-142.13;65.49
11712;BME280;5912;51.034;6.984;2023-02-25T08:55:14;56684.88;;;-142.13;65.92
11712;BME280;5912;51.034;6.984;2023-02-25T08:57:40;56672.84;;;-142.13;66.00
11712;BME280;5912;51.034;6.984;2023-02-25T09:00:07;56664.84;;;-142.13;65.71
11712;BME280;5912;51.034;6.984;2023-02-25T09:02:34;56692.88;;;-142.13;65.13
11712;BME280;5912;51.034;6.984;2023-02-25T09:04:59;56632.78;;;-142.13;64.96
11712;BME280;5912;51.034;6.984;2023-02-25T09:07:24;56676.84;;;-142.13;65.13
11712;BME280;5912;51.034;6.984;2023-02-25T09:09:50;56648.81;;;-142.13;64.90
11712;BME280;5912;51.034;6.984;2023-02-25T09:12:15;56668.84;;;-142.13;64.69
11712;BME280;5912;51.034;6.984;2023-02-25T09:14:40;56694.88;;;-142.13;64.50
11712;BME280;5912;51.034;6.984;2023-02-25T09:17:05;56682.88;;;-142.13;65.65
11712;BME280;5912;51.034;6.984;2023-02-25T09:19:32;56690.88;;;-142.13;65.63
11712;BME280;5912;51.034;6.984;2023-02-25T09:21:57;56660.81;;;-142.13;65.04
11712;BME280;5912;51.034;6.984;2023-02-25T09:24:23;56684.88;;;-142.13;65.87
11712;BME280;5912;51.034;6.984;2023-02-25T09:26:48;56640.78;;;-142.13;65.35
11712;BME280;5912;51.034;6.984;2023-02-25T09:29:14;56632.78;;;-142.13;65.37
11712;BME280;5912;51.034;6.984;2023-02-25T09:31:39;56652.81;;;-142.13;63.88
11712;BME280;5912;51.034;6.984;2023-02-25T09:34:07;56662.81;;;-142.13;61.96
11712;BME280;5912;51.034;6.984;2023-02-25T09:36:33;56660.81;;;-142.13;61.52
11712;BME280;5912;51.034;6.984;2023-02-25T09:38:58;56604.72;;;-142.13;61.67
11712;BME280;5912;51.034;6.984;2023-02-25T09:44:28;56612.75;;;-142.13;61.47
11712;BME280;5912;51.034;6.984;2023-02-25T09:47:01;56622.75;;;-142.13;60.61
11712;BME280;5912;51.034;6.984;2023-02-25T09:52:26;56636.78;;;-142.13;57.66
11712;BME280;5912;51.034;6.984;2023-02-25T09:55:02;56582.69;;;-142.13;58.01
11712;BME280;5912;51.034;6.984;2023-02-25T09:57:34;56596.72;;;-142.13;57.83
11712;BME280;5912;51.034;6.984;2023-02-25T10:00:01;56612.75;;;-142.13;55.97
11712;BME280;5912;51.034;6.984;2023-02-25T10:05:27;56612.75;;;-142.13;56.36
11712;BME280;5912;51.034;6.984;2023-02-25T10:10:32;56622.75;;;-142.13;57.24
11712;BME280;5912;51.034;6.984;2023-02-25T10:13:30;56600.72;;;-142.13;57.64
11712;BME280;5912;51.034;6.984;2023-02-25T10:19:00;56586.69;;;-142.13;57.03
11712;BME280;5912;51.034;6.984;2023-02-25T10:24:15;56620.75;;;-142.13;56.74
11712;BME280;5912;51.034;6.984;2023-02-25T10:26:48;56554.66;;;-142.13;56.20
11712;BME280;5912;51.034;6.984;2023-02-25T10:29:23;56600.72;;;-142.13;55.63
11712;BME280;5912;51.034;6.984;2023-02-25T10:31:57;56620.75;;;-142.13;54.56
11712;BME280;5912;51.034;6.984;2023-02-25T10:34:26;56608.75;;;-142.13;56.11
11712;BME280;5912;51.034;6.984;2023-02-25T10:36:57;56598.72;;;-142.13;57.03
11712;BME280;5912;51.034;6.984;2023-02-25T10:39:24;56610.75;;;-142.13;58.01
11712;BME280;5912;51.034;6.984;2023-02-25T10:41:50;56658.81;;;-142.13;57.61
11712;BME280;5912;51.034;6.984;2023-02-25T10:44:16;56612.75;;;-142.13;57.50
11712;BME280;5912;51.034;6.984;2023-02-25T10:52:15;56652.81;;;-142.13;60.64
11712;BME280;5912;51.034;6.984;2023-02-25T10:54:45;56658.81;;;-142.13;61.70
11712;BME280;5912;51.034;6.984;2023-02-25T10:57:15;56650.81;;;-142.13;60.79
11712;BME280;5912;51.034;6.984;2023-02-25T10:59:41;56658.81;;;-142.13;61.57
11712;BME280;5912;51.034;6.984;2023-02-25T11:02:24;56678.84;;;-142.13;61.33
11712;BME280;5912;51.034;6.984;2023-02-25T11:04:52;56664.84;;;-142.13;60.84
11712;BME280;5912;51.034;6.984;2023-02-25T11:07:42;56660.81;;;-142.13;60.78
11712;BME280;5912;51.034;6.984;2023-02-25T11:10:21;56686.88;;;-142.13;60.70
11712;BME280;5912;51.034;6.984;2023-02-25T11:12:49;56648.81;;;-142.13;60.60
11712;BME280;5912;51.034;6.984;2023-02-25T11:17:53;56652.81;;;-142.13;60.60
11712;BME280;5912;51.034;6.984;2023-02-25T11:20:27;56664.84;;;-142.13;59.56
11712;BME280;5912;51.034;6.984;2023-02-25T11:22:56;56652.81;;;-142.13;58.89
11712;BME280;5912;51.034;6.984;2023-02-25T11:25:48;56646.81;;;-142.13;58.43
11712;BME280;5912;51.034;6.984;2023-02-25T11:28:38;56624.75;;;-142.13;56.87
11712;BME280;5912;51.034;6.984;2023-02-25T11:34:17;56576.69;;;-142.13;57.15
11712;BME280;5912;51.034;6.984;2023-02-25T11:36:44;56550.63;;;-142.13;50.84
11712;BME280;5912;51.034;6.984;2023-02-25T11:39:14;56540.63;;;-142.13;48.26
11712;BME280;5912;51.034;6.984;2023-02-25T11:41:42;56516.59;;;-142.13;46.22
11712;BME280;5912;51.034;6.984;2023-02-25T11:44:27;56500.56;;;-142.13;46.43
11712;BME280;5912;51.034;6.984;2023-02-25T11:52:45;56440.47;;;-142.13;42.55
11712;BME280;5912;51.034;6.984;2023-02-25T12:03:29;56448.47;;;-142.13;40.71
11712;BME280;5912;51.034;6.984;2023-02-25T12:08:56;56442.47;;;-142.13;39.86
11712;BME280;5912;51.034;6.984;2023-02-25T12:14:57;56446.47;;;-142.13;38.83
11712;BME280;5912;51.034;6.984;2023-02-25T12:25:54;56492.53;;;-142.13;40.23
11712;BME280;5912;51.034;6.984;2023-02-25T12:28:27;56500.56;;;-142.13;40.14
11712;BME280;5912;51.034;6.984;2023-02-25T12:31:04;56512.59;;;-142.13;40.61
11712;BME280;5912;51.034;6.984;2023-02-25T12:33:55;56520.59;;;-142.13;41.01
11712;BME280;5912;51.034;6.984;2023-02-25T12:50:30;56600.72;;;-142.13;44.30
11712;BME280;5912;51.034;6.984;2023-02-25T12:53:27;56586.69;;;-142.13;42.50
11712;BME280;5912;51.034;6.984;2023-02-25T13:20:35;56652.81;;;-142.13;49.90
11712;BME280;5912;51.034;6.984;2023-02-25T13:23:34;56634.78;;;-142.13;50.30
11712;BME280;5912;51.034;6.984;2023-02-25T13:37:20;56624.75;;;-142.13;45.05
11712;BME280;5912;51.034;6.984;2023-02-25T13:39:54;56580.69;;;-142.13;41.33
11712;BME280;5912;51.034;6.984;2023-02-25T13:42:29;56530.59;;;-142.13;37.95
11712;BME280;5912;51.034;6.984;2023-02-25T13:45:13;56506.56;;;-142.13;36.53
11712;BME280;5912;51.034;6.984;2023-02-25T14:01:54;56450.47;;;-142.13;32.54
11712;BME280;5912;51.034;6.984;2023-02-25T14:07:16;56428.44;;;-142.13;31.74
11712;BME280;5912;51.034;6.984;2023-02-25T14:26:12;56420.44;;;-142.13;30.17
11712;BME280;5912;51.034;6.984;2023-02-25T14:31:19;56492.53;;;-142.13;30.29
11712;BME280;5912;51.034;6.984;2023-02-25T14:45:21;56426.44;;;-142.13;28.80
11712;BME280;5912;51.034;6.984;2023-02-25T14:48:02;56404.41;;;-142.13;29.10
11712;BME280;5912;51.034;6.984;2023-02-25T14:53:40;56418.44;;;-142.13;28.99
11712;BME280;5912;51.034;6.984;2023-02-25T15:02:27;56480.53;;;-142.13;29.36
11712;BME280;5912;51.034;6.984;2023-02-25T15:08:14;56540.63;;;-142.13;30.02
11712;BME280;5912;51.034;6.984;2023-02-25T15:19:42;56590.72;;;-142.13;32.32
11712;BME280;5912;51.034;6.984;2023-02-25T15:24:47;56602.72;;;-142.13;33.72
11712;BME280;5912;51.034;6.984;2023-02-25T15:33:23;56624.75;;;-142.13;34.77
11712;BME280;5912;51.034;6.984;2023-02-25T15:35:57;56592.72;;;-142.13;35.23
11712;BME280;5912;51.034;6.984;2023-02-25T15:51:44;56636.78;;;-142.13;36.11
11712;BME280;5912;51.034;6.984;2023-02-25T16:04:58;56624.75;;;-142.13;34.67
11712;BME280;5912;51.034;6.984;2023-02-25T16:07:32;56668.84;;;-142.13;35.33
11712;BME280;5912;51.034;6.984;2023-02-25T16:10:07;56630.78;;;-142.13;35.81
11712;BME280;5912;51.034;6.984;2023-02-25T16:12:33;56636.78;;;-142.13;36.07
11712;BME280;5912;51.034;6.984;2023-02-25T16:14:59;56640.78;;;-142.13;35.73
11712;BME280;5912;51.034;6.984;2023-02-25T16:17:31;56648.81;;;-142.13;35.91
11712;BME280;5912;51.034;6.984;2023-02-25T16:20:06;56638.78;;;-142.13;36.42
11712;BME280;5912;51.034;6.984;2023-02-25T16:22:34;56666.84;;;-142.13;36.60
11712;BME280;5912;51.034;6.984;2023-02-25T16:24:59;56654.81;;;-142.13;36.78
11712;BME280;5912;51.034;6.984;2023-02-25T16:30:36;56678.84;;;-142.13;35.99
11712;BME280;5912;51.034;6.984;2023-02-25T16:33:20;56672.84;;;-142.13;34.38
11712;BME280;5912;51.034;6.984;2023-02-25T16:41:11;56640.78;;;-142.13;35.62
11712;BME280;5912;51.034;6.984;2023-02-25T16:43:39;56676.84;;;-142.13;34.83
11712;BME280;5912;51.034;6.984;2023-02-25T16:46:09;56644.81;;;-142.13;35.27
11712;BME280;5912;51.034;6.984;2023-02-25T16:48:48;56676.84;;;-142.13;35.59
11712;BME280;5912;51.034;6.984;2023-02-25T16:53:54;56692.88;;;-142.13;35.90
11712;BME280;5912;51.034;6.984;2023-02-25T16:56:23;56680.84;;;-142.13;36.02
11712;BME280;5912;51.034;6.984;2023-02-25T17:01:35;56668.84;;;-142.13;36.00
11712;BME280;5912;51.034;6.984;2023-02-25T17:04:14;56700.91;;;-142.13;36.77
11712;BME280;5912;51.034;6.984;2023-02-25T17:06:40;56692.88;;;-142.13;37.63